createdAt,value
2019-03-05T00:01:53.255Z,4.03
2019-03-05T00:04:21.668Z,4.40
2019-03-05T00:06:50.321Z,4.10
2019-03-05T00:09:22.309Z,4.15
2019-03-05T00:11:50.686Z,4.10
2019-03-05T00:14:20.849Z,4.40
2019-03-05T00:16:49.436Z,4.28
2019-03-05T00:19:18.195Z,4.65
2019-03-05T00:21:46.763Z,4.92
2019-03-05T00:24:33.104Z,4.60
2019-03-05T00:27:01.718Z,4.50
2019-03-05T00:29:52.228Z,4.77
2019-03-05T00:32:20.876Z,4.80
2019-03-05T00:34:57.553Z,4.53
2019-03-05T00:37:29.577Z,4.70
2019-03-05T00:40:07.004Z,4.92
2019-03-05T00:42:53.222Z,5.05
2019-03-05T00:45:51.545Z,4.78
2019-03-05T00:48:29.061Z,5.20
2019-03-05T00:51:24.574Z,4.80
2019-03-05T00:53:54.732Z,4.53
2019-03-05T00:56:32.177Z,4.80
2019-03-05T00:59:06.852Z,4.80
2019-03-05T01:01:59.880Z,4.80
2019-03-05T01:04:58.849Z,4.80
2019-03-05T01:07:29.048Z,5.07
2019-03-05T01:09:57.108Z,5.10
2019-03-05T01:12:25.173Z,5.05
2019-03-05T01:14:55.569Z,4.90
2019-03-05T01:17:23.746Z,5.05
2019-03-05T01:19:53.194Z,5.28
2019-03-05T01:22:21.300Z,5.40
2019-03-05T01:24:49.840Z,5.10
2019-03-05T01:27:20.216Z,4.92
2019-03-05T01:29:48.726Z,5.10
2019-03-05T01:32:34.756Z,5.20
2019-03-05T01:35:22.021Z,5.40
2019-03-05T01:37:51.643Z,5.17
2019-03-05T01:40:38.408Z,5.60
2019-03-05T01:43:07.064Z,5.50
2019-03-05T01:45:35.205Z,4.87
2019-03-05T01:48:05.032Z,5.00
2019-03-05T01:50:33.512Z,5.40
2019-03-05T01:53:02.285Z,5.40
2019-03-05T01:55:30.785Z,5.50
2019-03-05T01:57:59.305Z,5.80
2019-03-05T02:00:27.844Z,6.12
2019-03-05T02:02:55.879Z,5.90
2019-03-05T02:05:24.391Z,5.80
2019-03-05T02:07:54.623Z,5.70
2019-03-05T02:10:23.232Z,5.70
2019-03-05T02:12:51.946Z,5.53
2019-03-05T02:15:20.039Z,6.30
2019-03-05T02:17:48.670Z,5.95
2019-03-05T02:20:18.220Z,6.00
2019-03-05T02:22:48.706Z,5.85
2019-03-05T02:25:18.952Z,5.87
2019-03-05T02:28:12.316Z,5.42
2019-03-05T02:30:59.744Z,6.10
2019-03-05T02:33:46.862Z,6.33
2019-03-05T02:36:21.867Z,6.07
2019-03-05T02:39:15.731Z,6.33
2019-03-05T02:42:08.666Z,6.10
2019-03-05T02:45:02.407Z,6.28
2019-03-05T02:47:52.490Z,5.95
2019-03-05T02:50:58.403Z,6.20
2019-03-05T02:53:30.854Z,5.97
2019-03-05T02:56:14.883Z,6.10
2019-03-05T02:58:42.120Z,6.30
2019-03-05T03:01:28.281Z,6.30
2019-03-05T03:04:00.225Z,6.80
2019-03-05T03:06:31.327Z,6.42
2019-03-05T03:09:17.379Z,6.12
2019-03-05T03:11:46.003Z,6.05
2019-03-05T03:14:14.112Z,5.40
2019-03-05T03:16:42.540Z,5.17
2019-03-05T03:19:10.754Z,4.90
2019-03-05T03:21:38.689Z,5.03
2019-03-05T03:24:07.382Z,5.00
2019-03-05T03:26:35.851Z,5.08
2019-03-05T03:29:04.157Z,5.10
2019-03-05T03:31:32.221Z,4.87
2019-03-05T03:34:00.863Z,3.67
2019-03-05T03:36:29.185Z,2.93
2019-03-05T03:38:57.306Z,2.98
2019-03-05T03:41:25.695Z,2.50
2019-03-05T03:43:54.257Z,2.10
2019-03-05T03:46:23.931Z,2.30
2019-03-05T03:48:52.043Z,2.00
2019-03-05T03:51:20.585Z,2.30
2019-03-05T03:53:48.652Z,2.50
2019-03-05T03:56:16.706Z,2.70
2019-03-05T03:58:44.803Z,2.80
2019-03-05T04:01:13.305Z,3.10
2019-03-05T04:03:43.212Z,3.70
2019-03-05T04:06:11.394Z,3.90
2019-03-05T04:08:39.466Z,3.90
2019-03-05T04:11:08.253Z,4.20
2019-03-05T04:13:36.767Z,3.67
2019-03-05T04:16:05.109Z,3.80
2019-03-05T04:18:33.272Z,3.33
2019-03-05T04:21:01.434Z,2.80
2019-03-05T04:23:30.033Z,3.10
2019-03-05T04:25:58.304Z,3.20
2019-03-05T04:28:27.280Z,3.20
2019-03-05T04:30:55.459Z,3.22
2019-03-05T04:33:24.377Z,3.30
2019-03-05T04:35:53.116Z,3.17
2019-03-05T04:38:21.741Z,2.90
2019-03-05T04:40:50.152Z,3.50
2019-03-05T04:43:19.420Z,3.37
2019-03-05T04:46:00.868Z,3.50
2019-03-05T04:48:29.083Z,3.40
2019-03-05T04:51:03.184Z,3.20
2019-03-05T04:53:31.372Z,3.60
2019-03-05T04:55:59.535Z,3.50
2019-03-05T04:58:27.698Z,3.90
2019-03-05T05:00:55.898Z,3.70
2019-03-05T05:03:24.650Z,3.58
2019-03-05T05:05:52.862Z,3.60
2019-03-05T05:08:20.967Z,3.80
2019-03-05T05:10:49.768Z,4.20
2019-03-05T05:13:18.895Z,4.50
2019-03-05T05:15:47.075Z,4.67
2019-03-05T05:18:15.527Z,5.03
2019-03-05T05:20:45.879Z,5.12
2019-03-05T05:23:14.335Z,5.40
2019-03-05T05:25:42.768Z,5.25
2019-03-05T05:28:11.237Z,4.90
2019-03-05T05:30:39.822Z,4.80
2019-03-05T05:33:08.170Z,4.80
2019-03-05T05:35:36.262Z,5.17
2019-03-05T05:38:04.731Z,4.70
2019-03-05T05:40:37.076Z,4.72
2019-03-05T05:43:05.823Z,4.50
2019-03-05T05:45:38.696Z,4.55
2019-03-05T05:48:07.139Z,4.70
2019-03-05T05:50:35.685Z,4.13
2019-03-05T05:53:06.068Z,4.30
2019-03-05T05:55:34.622Z,4.60
2019-03-05T05:58:03.007Z,4.20
2019-03-05T06:00:31.273Z,4.00
2019-03-05T06:02:59.579Z,3.80
2019-03-05T06:05:27.722Z,4.30
2019-03-05T06:07:55.805Z,3.85
2019-03-05T06:10:24.196Z,4.10
2019-03-05T06:12:52.869Z,4.00
2019-03-05T06:15:23.138Z,4.30
2019-03-05T06:17:53.471Z,4.30
2019-03-05T06:20:22.523Z,3.77
2019-03-05T06:22:51.027Z,3.83
2019-03-05T06:25:19.105Z,3.80
2019-03-05T06:27:48.032Z,3.92
2019-03-05T06:30:16.188Z,4.00
2019-03-05T06:32:45.482Z,3.40
2019-03-05T06:35:13.700Z,3.83
2019-03-05T06:37:42.307Z,3.70
2019-03-05T06:40:11.716Z,3.50
2019-03-05T06:42:39.924Z,3.52
2019-03-05T06:45:13.341Z,3.60
2019-03-05T06:47:41.500Z,3.70
2019-03-05T06:50:10.208Z,4.15
2019-03-05T06:52:38.562Z,3.92
2019-03-05T06:55:07.249Z,3.77
2019-03-05T06:57:35.421Z,3.67
2019-03-05T07:00:03.501Z,3.45
2019-03-05T07:02:31.669Z,4.10
2019-03-05T07:04:59.831Z,4.40
2019-03-05T07:07:29.169Z,3.90
2019-03-05T07:10:31.428Z,3.40
2019-03-05T07:13:12.943Z,3.60
2019-03-05T07:16:00.230Z,3.90
2019-03-05T07:18:30.562Z,3.30
2019-03-05T07:21:26.889Z,3.75
2019-03-05T07:24:26.414Z,3.87
2019-03-05T07:26:54.559Z,4.10
2019-03-05T07:29:22.765Z,3.92
2019-03-05T07:31:51.497Z,3.67
2019-03-05T07:34:23.502Z,3.90
2019-03-05T07:36:51.589Z,3.70
2019-03-05T07:39:20.589Z,3.40
2019-03-05T07:41:49.522Z,3.40
2019-03-05T07:44:17.629Z,3.17
2019-03-05T07:46:45.820Z,3.17
2019-03-05T07:49:14.311Z,3.00
2019-03-05T07:51:42.368Z,3.00
2019-03-05T07:54:10.573Z,3.40
2019-03-05T07:56:39.220Z,3.00
2019-03-05T07:59:07.453Z,3.10
2019-03-05T08:01:35.593Z,3.10
2019-03-05T08:04:05.200Z,3.58
2019-03-05T08:06:33.235Z,3.47
2019-03-05T08:09:19.337Z,2.72
2019-03-05T08:11:47.994Z,3.92
2019-03-05T08:14:53.176Z,2.70
2019-03-05T08:17:22.065Z,3.00
2019-03-05T08:19:50.513Z,2.90
2019-03-05T08:22:18.552Z,3.20
2019-03-05T08:24:47.223Z,2.90
2019-03-05T08:27:15.743Z,3.12
2019-03-05T08:29:44.185Z,3.30
2019-03-05T08:32:13.105Z,3.07
2019-03-05T08:34:41.180Z,3.17
2019-03-05T08:37:09.327Z,3.00
2019-03-05T08:39:37.767Z,3.35
2019-03-05T08:42:05.965Z,3.20
2019-03-05T08:44:34.775Z,3.50
2019-03-05T08:47:02.864Z,2.90
2019-03-05T08:49:31.308Z,3.30
2019-03-05T08:52:00.257Z,3.20
2019-03-05T08:54:28.636Z,2.90
2019-03-05T08:56:57.776Z,3.00
2019-03-05T08:59:25.870Z,3.30
2019-03-05T09:01:54.290Z,2.72
2019-03-05T09:04:23.437Z,2.77
2019-03-05T09:06:51.587Z,2.60
2019-03-05T09:09:20.349Z,2.80
2019-03-05T09:11:48.543Z,2.70
2019-03-05T09:14:16.982Z,2.70
2019-03-05T09:16:45.037Z,2.27
2019-03-05T09:19:13.655Z,2.50
2019-03-05T09:21:41.876Z,2.90
2019-03-05T09:24:10.312Z,2.40
2019-03-05T09:26:38.445Z,3.00
2019-03-05T09:29:06.706Z,2.20
2019-03-05T09:31:35.242Z,2.33
2019-03-05T09:34:04.361Z,2.62
2019-03-05T09:36:32.551Z,2.52
2019-03-05T09:39:03.081Z,2.50
2019-03-05T09:41:30.248Z,2.27
2019-03-05T09:43:58.287Z,2.20
2019-03-05T09:46:26.339Z,2.75
2019-03-05T09:48:55.492Z,2.50
2019-03-05T09:51:23.521Z,2.25
2019-03-05T09:53:51.905Z,2.20
2019-03-05T09:56:20.376Z,2.00
2019-03-05T09:58:48.750Z,2.00
2019-03-05T10:01:17.119Z,2.30
2019-03-05T10:03:45.115Z,2.10
2019-03-05T10:06:13.686Z,2.40
2019-03-05T10:08:42.078Z,2.47
2019-03-05T10:11:11.680Z,2.10
2019-03-05T10:13:40.243Z,2.20
2019-03-05T10:16:08.639Z,2.30
2019-03-05T10:18:39.231Z,1.90
2019-03-05T10:21:06.476Z,2.00
2019-03-05T10:23:34.966Z,2.40
2019-03-05T10:26:03.079Z,2.10
2019-03-05T10:28:31.776Z,2.00
2019-03-05T10:30:59.851Z,1.97
2019-03-05T10:33:28.516Z,2.30
2019-03-05T10:35:56.725Z,2.35
2019-03-05T10:38:24.768Z,2.30
2019-03-05T10:40:53.774Z,2.20
2019-03-05T10:43:22.456Z,2.20
2019-03-05T10:45:50.923Z,2.22
2019-03-05T10:48:19.337Z,2.40
2019-03-05T10:50:47.816Z,2.00
2019-03-05T10:53:16.170Z,2.12
2019-03-05T10:55:44.689Z,2.15
2019-03-05T10:58:14.121Z,2.10
2019-03-05T11:00:43.630Z,2.33
2019-03-05T11:03:12.184Z,2.30
2019-03-05T11:05:40.762Z,2.50
2019-03-05T11:08:11.133Z,2.40
2019-03-05T11:10:41.130Z,2.33
2019-03-05T11:13:10.894Z,2.42
2019-03-05T11:15:39.491Z,2.58
2019-03-05T11:18:08.224Z,2.20
2019-03-05T11:20:36.669Z,2.30
2019-03-05T11:23:05.441Z,2.75
2019-03-05T11:25:34.416Z,2.40
2019-03-05T11:28:02.784Z,2.52
2019-03-05T11:30:36.044Z,2.42
2019-03-05T11:33:01.627Z,2.60
2019-03-05T11:35:30.322Z,2.30
2019-03-05T11:37:58.353Z,2.40
2019-03-05T11:40:28.068Z,2.00
2019-03-05T11:42:56.115Z,2.20
2019-03-05T11:45:28.180Z,2.10
2019-03-05T11:47:57.194Z,2.17
2019-03-05T11:50:26.202Z,2.15
2019-03-05T11:52:54.540Z,2.30
2019-03-05T11:55:23.024Z,2.08
2019-03-05T11:57:51.658Z,2.20
2019-03-05T12:00:27.439Z,2.17
2019-03-05T12:02:55.484Z,2.00
2019-03-05T12:05:24.048Z,2.05
2019-03-05T12:07:52.167Z,2.20
2019-03-05T12:10:20.336Z,2.30
2019-03-05T12:12:48.428Z,2.30
2019-03-05T12:15:16.840Z,2.40
2019-03-05T12:17:44.964Z,2.10
2019-03-05T12:20:13.622Z,2.40
2019-03-05T12:22:41.960Z,2.10
2019-03-05T12:25:11.699Z,2.52
2019-03-05T12:27:39.813Z,2.20
2019-03-05T12:30:09.384Z,2.40
2019-03-05T12:32:37.851Z,2.40
2019-03-05T12:35:06.204Z,2.67
2019-03-05T12:37:34.765Z,2.47
2019-03-05T12:40:03.616Z,2.50
2019-03-05T12:42:32.513Z,2.60
2019-03-05T12:45:00.625Z,2.50
2019-03-05T12:47:29.173Z,2.70
2019-03-05T12:49:57.463Z,2.93
2019-03-05T12:52:25.798Z,2.87
2019-03-05T12:54:56.232Z,2.80
2019-03-05T12:57:24.190Z,3.00
2019-03-05T12:59:52.815Z,3.20
2019-03-05T13:02:21.697Z,3.30
2019-03-05T13:04:50.250Z,3.00
2019-03-05T13:07:20.473Z,2.83
2019-03-05T13:09:52.590Z,2.98
2019-03-05T13:12:18.935Z,2.90
2019-03-05T13:14:47.783Z,3.30
2019-03-05T13:17:16.248Z,3.00
2019-03-05T13:19:47.986Z,3.10
2019-03-05T13:22:14.624Z,3.50
2019-03-05T13:24:46.866Z,2.80
2019-03-05T13:27:13.530Z,3.10
2019-03-05T13:29:42.139Z,3.30
2019-03-05T13:32:11.049Z,3.05
2019-03-05T13:34:39.415Z,3.30
2019-03-05T13:37:07.711Z,3.10
2019-03-05T13:39:35.981Z,2.80
2019-03-05T13:42:04.701Z,3.05
2019-03-05T13:44:34.072Z,2.90
2019-03-05T13:47:04.662Z,2.40
2019-03-05T13:49:58.782Z,2.10
2019-03-05T13:52:42.280Z,2.15
2019-03-05T13:55:40.369Z,2.15
2019-03-05T13:58:14.367Z,1.60
2019-03-05T14:00:43.518Z,1.95
2019-03-05T14:03:13.760Z,1.70
2019-03-05T14:05:52.462Z,1.70
2019-03-05T14:08:41.711Z,1.70
2019-03-05T14:11:10.158Z,2.22
2019-03-05T14:13:38.205Z,2.30
2019-03-05T14:16:07.676Z,3.10
2019-03-05T14:18:37.438Z,5.42
2019-03-05T14:21:05.896Z,4.12
2019-03-05T14:23:34.344Z,2.60
2019-03-05T14:26:02.759Z,2.00
2019-03-05T14:28:31.120Z,2.10
2019-03-05T14:30:59.440Z,2.02
2019-03-05T14:33:27.520Z,2.55
2019-03-05T14:35:55.939Z,2.22
2019-03-05T14:38:24.559Z,1.40
2019-03-05T14:40:53.070Z,1.30
2019-03-05T14:43:21.454Z,1.00
2019-03-05T14:45:49.877Z,1.23
2019-03-05T14:48:18.384Z,1.07
2019-03-05T14:50:46.530Z,1.35
2019-03-05T14:53:14.698Z,1.27
2019-03-05T14:55:42.737Z,0.80
2019-03-05T14:58:10.849Z,1.00
2019-03-05T15:00:40.076Z,0.95
2019-03-05T15:03:08.701Z,1.10
2019-03-05T15:05:37.055Z,1.32
2019-03-05T15:08:05.457Z,1.20
2019-03-05T15:10:34.207Z,2.08
2019-03-05T15:13:06.900Z,1.30
2019-03-05T15:15:32.391Z,1.30
2019-03-05T15:18:00.787Z,1.22
2019-03-05T15:20:28.784Z,1.40
2019-03-05T15:22:56.850Z,1.60
2019-03-05T15:25:25.283Z,1.40
2019-03-05T15:27:53.328Z,1.50
2019-03-05T15:30:21.819Z,1.60
2019-03-05T15:32:49.877Z,1.77
2019-03-05T15:35:17.911Z,1.70
2019-03-05T15:37:45.981Z,1.70
2019-03-05T15:40:14.423Z,1.65
2019-03-05T15:42:42.639Z,2.00
2019-03-05T15:45:12.195Z,2.08
2019-03-05T15:47:42.680Z,1.90
2019-03-05T15:50:10.950Z,1.70
2019-03-05T15:52:38.978Z,2.00
2019-03-05T15:55:07.794Z,1.60
2019-03-05T15:57:35.819Z,2.10
2019-03-05T16:00:04.231Z,2.80
2019-03-05T16:02:32.612Z,5.87
2019-03-05T16:05:11.133Z,3.27
2019-03-05T16:07:30.456Z,2.20
2019-03-05T16:09:58.730Z,1.80
2019-03-05T16:12:26.744Z,2.20
2019-03-05T16:14:55.414Z,2.15
2019-03-05T16:17:24.134Z,1.80
2019-03-05T16:19:53.690Z,2.00
2019-03-05T16:22:24.343Z,2.15
2019-03-05T16:24:52.707Z,8.90
2019-03-05T16:27:21.134Z,2.30
2019-03-05T16:29:52.095Z,1.90
2019-03-05T16:32:38.195Z,1.90
2019-03-05T16:35:27.358Z,2.80
2019-03-05T16:38:18.733Z,3.47
2019-03-05T16:41:22.011Z,2.15
2019-03-05T16:44:12.825Z,4.42
2019-03-05T16:47:00.246Z,3.90
2019-03-05T16:49:59.214Z,2.90
2019-03-05T16:53:01.640Z,2.40
2019-03-05T16:55:51.628Z,2.08
2019-03-05T16:58:46.259Z,2.10
2019-03-05T17:01:31.476Z,2.60
2019-03-05T17:04:18.489Z,2.60
2019-03-05T17:07:17.953Z,2.02
2019-03-05T17:10:10.902Z,2.20
2019-03-05T17:12:39.021Z,2.22
2019-03-05T17:15:08.025Z,2.27
2019-03-05T17:17:36.113Z,2.00
2019-03-05T17:20:04.600Z,2.10
2019-03-05T17:22:32.615Z,2.40
2019-03-05T17:25:01.021Z,2.60
2019-03-05T17:27:29.069Z,4.30
2019-03-05T17:29:57.109Z,3.20
2019-03-05T17:32:25.183Z,4.85
2019-03-05T17:34:53.627Z,3.00
2019-03-05T17:37:22.225Z,3.35
2019-03-05T17:39:50.567Z,3.42
2019-03-05T17:42:19.184Z,5.70
2019-03-05T17:44:47.918Z,3.92
2019-03-05T17:47:16.544Z,2.80
2019-03-05T17:49:44.641Z,3.30
2019-03-05T17:52:12.684Z,2.80
2019-03-05T17:54:41.092Z,3.50
2019-03-05T17:57:09.222Z,3.00
2019-03-05T17:59:37.284Z,2.85
2019-03-05T18:02:05.439Z,4.12
2019-03-05T18:04:33.505Z,4.20
2019-03-05T18:07:02.237Z,3.40
2019-03-05T18:09:30.300Z,3.15
2019-03-05T18:11:59.212Z,2.85
2019-03-05T18:14:27.595Z,3.90
2019-03-05T18:16:55.582Z,3.15
2019-03-05T18:19:24.672Z,4.37
2019-03-05T18:21:53.056Z,3.12
2019-03-05T18:24:21.147Z,2.90
2019-03-05T18:26:49.146Z,2.80
2019-03-05T18:29:17.297Z,3.67
2019-03-05T18:31:45.395Z,10.78
2019-03-05T18:34:14.021Z,4.37
2019-03-05T18:36:42.134Z,3.60
2019-03-05T18:39:10.239Z,3.30
2019-03-05T18:41:40.461Z,3.60
2019-03-05T18:44:08.958Z,3.43
2019-03-05T18:46:37.348Z,3.30
2019-03-05T18:49:05.765Z,3.50
2019-03-05T18:51:34.415Z,3.30
2019-03-05T18:54:02.763Z,3.10
2019-03-05T18:56:31.576Z,4.53
2019-03-05T18:58:59.568Z,3.30
2019-03-05T19:01:27.760Z,3.30
2019-03-05T19:03:56.228Z,3.45
2019-03-05T19:06:24.726Z,3.47
2019-03-05T19:08:52.720Z,3.70
2019-03-05T19:11:21.299Z,5.00
2019-03-05T19:13:49.451Z,11.40
2019-03-05T19:16:18.136Z,21.80
2019-03-05T19:18:46.579Z,5.90
2019-03-05T19:21:15.476Z,4.20
2019-03-05T19:23:44.071Z,3.85
2019-03-05T19:26:13.005Z,3.83
2019-03-05T19:28:41.480Z,3.80
2019-03-05T19:31:09.678Z,3.70
2019-03-05T19:33:38.120Z,4.35
2019-03-05T19:36:06.300Z,4.10
2019-03-05T19:38:34.416Z,4.30
2019-03-05T19:41:03.201Z,4.10
2019-03-05T19:43:31.908Z,4.05
2019-03-05T19:46:00.307Z,8.30
2019-03-05T19:48:28.769Z,6.72
2019-03-05T19:50:58.736Z,5.95
2019-03-05T19:53:28.448Z,6.00
2019-03-05T19:55:57.020Z,4.50
2019-03-05T19:58:26.377Z,4.93
2019-03-05T20:00:58.765Z,4.20
2019-03-05T20:03:26.973Z,4.08
2019-03-05T20:05:55.626Z,4.22
2019-03-05T20:08:24.095Z,3.92
2019-03-05T20:10:52.219Z,3.87
2019-03-05T20:13:20.390Z,3.83
2019-03-05T20:15:48.804Z,3.90
2019-03-05T20:18:19.059Z,3.80
2019-03-05T20:20:47.432Z,4.45
2019-03-05T20:23:16.157Z,4.50
2019-03-05T20:25:45.115Z,9.03
2019-03-05T20:28:13.400Z,4.30
2019-03-05T20:30:41.988Z,4.10
2019-03-05T20:33:10.452Z,4.10
2019-03-05T20:35:38.674Z,4.37
2019-03-05T20:38:07.765Z,6.80
2019-03-05T20:40:35.857Z,6.55
2019-03-05T20:43:04.333Z,4.45
2019-03-05T20:45:32.966Z,9.00
2019-03-05T20:48:01.597Z,4.42
2019-03-05T20:50:30.652Z,4.55
2019-03-05T20:52:59.035Z,5.45
2019-03-05T20:55:27.127Z,4.80
2019-03-05T20:57:55.503Z,4.20
2019-03-05T21:00:27.825Z,4.20
2019-03-05T21:02:57.360Z,4.20
2019-03-05T21:05:27.360Z,4.15
2019-03-05T21:07:55.585Z,4.60
2019-03-05T21:10:24.256Z,3.90
2019-03-05T21:12:52.391Z,3.92
2019-03-05T21:15:20.815Z,4.10
2019-03-05T21:17:49.412Z,4.15
2019-03-05T21:20:17.801Z,6.20
2019-03-05T21:22:45.799Z,5.05
2019-03-05T21:25:15.112Z,5.97
2019-03-05T21:27:43.880Z,4.30
2019-03-05T21:30:13.387Z,4.10
2019-03-05T21:32:41.429Z,4.80
2019-03-05T21:35:10.281Z,4.50
2019-03-05T21:37:38.590Z,4.15
2019-03-05T21:40:08.200Z,4.92
2019-03-05T21:42:36.947Z,4.60
2019-03-05T21:45:05.625Z,4.37
2019-03-05T21:47:33.671Z,4.40
2019-03-05T21:50:02.403Z,4.22
2019-03-05T21:52:31.093Z,3.85
2019-03-05T21:54:59.118Z,4.10
2019-03-05T21:57:27.468Z,4.37
2019-03-05T21:59:57.030Z,8.73
2019-03-05T22:02:25.126Z,8.70
2019-03-05T22:04:53.474Z,4.50
2019-03-05T22:07:21.716Z,5.00
2019-03-05T22:09:50.335Z,4.85
2019-03-05T22:12:18.941Z,4.30
2019-03-05T22:14:47.048Z,4.45
2019-03-05T22:17:15.185Z,4.42
2019-03-05T22:19:43.245Z,4.17
2019-03-05T22:22:11.275Z,4.60
2019-03-05T22:24:39.339Z,4.20
2019-03-05T22:27:07.820Z,4.53
2019-03-05T22:29:36.259Z,4.03
2019-03-05T22:32:04.286Z,4.45
2019-03-05T22:34:33.124Z,4.80
2019-03-05T22:37:01.332Z,4.67
2019-03-05T22:39:30.508Z,4.40
2019-03-05T22:41:59.163Z,4.50
2019-03-05T22:44:27.417Z,4.70
2019-03-05T22:46:55.849Z,4.85
2019-03-05T22:49:23.892Z,4.55
2019-03-05T22:51:52.276Z,4.35
2019-03-05T22:54:20.869Z,4.70
2019-03-05T22:56:49.645Z,4.30
2019-03-05T22:59:17.890Z,5.28
2019-03-05T23:01:46.728Z,4.90
2019-03-05T23:04:17.128Z,5.10
2019-03-05T23:06:45.211Z,5.40
2019-03-05T23:09:24.373Z,5.30
2019-03-05T23:11:52.984Z,5.12
2019-03-05T23:14:22.964Z,5.30
2019-03-05T23:16:51.402Z,5.10
2019-03-05T23:19:20.033Z,4.72
2019-03-05T23:21:48.636Z,4.90
2019-03-05T23:24:17.641Z,5.70
2019-03-05T23:26:45.703Z,5.47
2019-03-05T23:29:14.153Z,5.20
2019-03-05T23:31:43.591Z,5.70
2019-03-05T23:34:18.217Z,5.65
2019-03-05T23:36:42.681Z,5.80
2019-03-05T23:39:12.775Z,5.90
2019-03-05T23:41:40.903Z,5.58
2019-03-05T23:44:09.288Z,6.22
2019-03-05T23:46:37.348Z,6.65
2019-03-05T23:49:05.392Z,6.60
2019-03-05T23:51:34.047Z,6.80
2019-03-05T23:54:02.804Z,6.90
2019-03-05T23:56:30.986Z,6.30
2019-03-05T23:58:59.628Z,7.10
